Time;durP1;ratioP1;P1;durP2;ratioP2;P2;SDS_P1;SDS_P2;PMS_P1;PMS_P2;Temp;Humidity;BMP_temperature;BMP_pressure;BME280_temperature;BME280_humidity;BME280_pressure;Samples;Min_cycle;Max_cycle;Signal;HPM_P1;HPM_P2
2024/03/01 00:01:13;;;;;;;24.00;17.70;;;2.20;99.90;;;1.47;100.00;97055.19;5075093;28;20437;-73
2024/03/01 00:03:41;;;;;;;31.23;18.43;;;2.30;99.90;;;1.39;100.00;97035.59;5056363;28;20472;-71
2024/03/01 00:06:09;;;;;;;31.10;18.70;;;2.30;99.90;;;1.37;100.00;97050.94;5067296;28;20506;-72
2024/03/01 00:08:37;;;;;;;27.87;18.23;;;2.30;99.90;;;1.32;100.00;97044.47;5055483;28;20520;-71
2024/03/01 00:11:04;;;;;;;29.90;17.50;;;2.30;99.90;;;1.34;100.00;97040.66;5055661;28;20549;-72
2024/03/01 00:13:31;;;;;;;29.50;17.93;;;2.30;99.90;;;1.40;100.00;97039.91;5061111;28;20937;-73
2024/03/01 00:16:00;;;;;;;29.03;18.77;;;2.30;99.90;;;1.31;100.00;97043.69;5062108;28;20460;-73
2024/03/01 00:18:28;;;;;;;29.97;17.97;;;2.30;99.90;;;1.27;100.00;97037.88;5058306;28;20460;-73
2024/03/01 00:20:57;;;;;;;30.60;19.10;;;2.20;99.40;;;1.22;100.00;97034.09;5052469;28;20471;-72
2024/03/01 00:23:26;;;;;;;30.20;18.60;;;2.10;99.40;;;1.23;100.00;97033.09;5060399;28;21047;-71
2024/03/01 00:25:55;;;;;;;33.47;17.77;;;2.10;99.90;;;1.30;100.00;97027.88;5067333;28;20505;-72
2024/03/01 00:28:23;;;;;;;31.87;18.47;;;2.20;99.90;;;1.25;100.00;97033.72;5065321;28;20452;-72
2024/03/01 00:30:52;;;;;;;31.90;18.70;;;2.20;99.90;;;1.22;100.00;97016.31;5060180;28;20462;-72
2024/03/01 00:33:22;;;;;;;30.10;18.30;;;2.20;99.90;;;1.19;100.00;97013.19;5059296;28;20520;-72
2024/03/01 00:35:49;;;;;;;34.07;18.53;;;2.10;99.50;;;1.18;100.00;97012.34;5064474;28;20499;-72
2024/03/01 00:38:18;;;;;;;29.80;17.93;;;2.10;99.90;;;1.22;100.00;97020.78;5081176;28;20436;-72
2024/03/01 00:40:46;;;;;;;31.27;18.57;;;2.10;99.90;;;1.19;100.00;97013.19;5066511;28;20463;-72
2024/03/01 00:43:14;;;;;;;26.33;18.63;;;2.10;99.90;;;1.17;100.00;97016.00;5048107;28;20540;-72
2024/03/01 00:45:42;;;;;;;32.20;19.90;;;2.10;99.90;;;1.13;100.00;97010.19;5067766;28;20488;-73
2024/03/01 00:48:11;;;;;;;32.70;19.63;;;2.10;99.90;;;1.17;100.00;97004.53;5061699;28;20485;-73
2024/03/01 00:50:39;;;;;;;33.00;20.67;;;2.00;99.90;;;1.13;100.00;96993.44;5068139;28;20452;-74
2024/03/01 00:53:09;;;;;;;33.50;21.07;;;2.10;99.90;;;1.19;100.00;97007.84;5066503;28;20561;-72
2024/03/01 00:55:40;;;;;;;36.90;19.77;;;2.10;99.90;;;0.97;100.00;96989.06;5058977;28;20542;-72
2024/03/01 00:58:10;;;;;;;32.43;19.33;;;1.90;99.50;;;0.93;100.00;96993.94;5063709;28;21023;-71
2024/03/01 01:00:38;;;;;;;35.70;20.73;;;1.90;99.90;;;1.08;100.00;96993.97;5060721;28;20462;-73
2024/03/01 01:03:05;;;;;;;34.47;20.30;;;1.90;99.90;;;1.15;100.00;96990.59;5063335;28;20939;-74
2024/03/01 01:05:35;;;;;;;30.73;18.93;;;2.00;99.90;;;1.11;100.00;96987.47;5061248;28;20480;-72
2024/03/01 01:08:03;;;;;;;33.77;20.07;;;2.00;99.90;;;1.08;100.00;96991.31;5059598;28;20531;-71
2024/03/01 01:10:31;;;;;;;35.40;20.70;;;2.00;99.90;;;1.09;100.00;96986.81;5062987;28;20553;-72
2024/03/01 01:13:02;;;;;;;30.87;19.47;;;2.00;99.90;;;1.08;100.00;96985.97;5057012;28;20452;-73
2024/03/01 01:15:30;;;;;;;29.57;19.67;;;2.00;99.90;;;0.99;100.00;96981.75;5058705;28;20965;-72
2024/03/01 01:17:57;;;;;;;30.43;19.03;;;1.90;99.90;;;0.99;100.00;96987.91;5061508;28;20864;-72
2024/03/01 01:20:26;;;;;;;33.27;18.53;;;1.80;99.90;;;0.91;100.00;96985.31;5062820;28;20487;-72
2024/03/01 01:22:54;;;;;;;31.77;20.27;;;1.80;99.90;;;0.94;100.00;96981.44;5057082;28;20453;-72
2024/03/01 01:25:24;;;;;;;34.03;18.97;;;1.80;99.90;;;0.80;100.00;96957.28;5061623;28;20476;-72
2024/03/01 01:27:52;;;;;;;32.20;19.73;;;1.80;99.90;;;0.85;100.00;96975.38;5060891;28;20510;-72
2024/03/01 01:30:21;;;;;;;31.20;19.60;;;1.70;99.90;;;0.71;100.00;96947.75;5063184;28;20460;-73
2024/03/01 01:32:48;;;;;;;29.00;18.90;;;1.80;99.90;;;0.86;100.00;96970.91;5060480;28;20462;-73
2024/03/01 01:35:17;;;;;;;35.87;19.93;;;1.80;99.90;;;0.77;100.00;96962.97;5047325;28;20488;-72
2024/03/01 01:37:44;;;;;;;33.80;20.10;;;1.70;99.90;;;0.74;100.00;96965.16;5061159;28;20502;-71
2024/03/01 01:40:13;;;;;;;32.10;20.00;;;1.70;99.90;;;0.64;100.00;96965.41;5059485;28;20448;-73
2024/03/01 01:42:41;;;;;;;31.07;18.13;;;1.60;99.90;;;0.70;100.00;96970.03;5065057;28;20460;-73
2024/03/01 01:45:10;;;;;;;27.63;17.67;;;1.60;99.90;;;0.14;100.00;96894.00;5061803;28;20476;-73
2024/03/01 01:47:38;;;;;;;28.50;17.80;;;1.50;99.90;;;0.66;100.00;96966.06;5080906;28;20452;-72
2024/03/01 01:50:06;;;;;;;28.73;18.67;;;1.60;99.90;;;0.68;100.00;96956.91;5064294;28;20459;-72
2024/03/01 01:52:34;;;;;;;33.87;19.03;;;1.60;99.90;;;0.60;100.00;96961.47;5057317;28;20450;-71
2024/03/01 01:55:02;;;;;;;29.80;17.70;;;1.50;99.90;;;0.53;100.00;96970.16;5055971;28;20445;-73
2024/03/01 01:57:30;;;;;;;39.00;20.53;;;1.50;99.90;;;0.49;100.00;96971.50;5066709;28;20453;-71
2024/03/01 01:59:58;;;;;;;29.17;17.90;;;1.50;99.90;;;0.52;100.00;96965.81;5062742;28;20471;-72
2024/03/01 02:02:27;;;;;;;34.13;20.13;;;1.50;99.90;;;0.42;100.00;96963.41;5062768;28;20463;-72
2024/03/01 02:04:58;;;;;;;34.63;19.23;;;1.50;99.90;;;0.41;100.00;96963.59;5061060;28;20479;-71
2024/03/01 02:07:26;;;;;;;32.83;20.20;;;1.50;99.90;;;0.46;100.00;96976.34;5059846;28;20513;-71
2024/03/01 02:09:56;;;;;;;31.03;18.00;;;1.50;99.90;;;0.38;100.00;96951.47;5059598;28;20452;-71
2024/03/01 02:12:25;;;;;;;32.97;18.60;;;1.40;99.90;;;0.40;100.00;96957.44;5058591;28;20456;-71
2024/03/01 02:14:55;;;;;;;35.17;20.10;;;1.40;99.90;;;0.40;100.00;96954.78;5061501;28;20441;-72
2024/03/01 02:17:31;;;;;;;30.97;19.50;;;1.40;99.90;;;0.51;100.00;96948.22;5054938;28;20461;-73
2024/03/01 02:20:05;;;;;;;31.17;19.30;;;1.50;99.90;;;0.43;100.00;96953.59;5061459;28;20533;-74
2024/03/01 02:22:41;;;;;;;30.33;17.80;;;1.40;99.90;;;0.43;100.00;96950.94;5053477;28;20527;-73
2024/03/01 02:25:13;;;;;;;28.00;18.33;;;1.40;99.90;;;0.36;100.00;96947.31;5063570;28;20494;-72
2024/03/01 02:27:40;;;;;;;35.53;19.50;;;1.40;99.90;;;0.34;100.00;96941.38;5056216;28;20492;-73
2024/03/01 02:30:10;;;;;;;27.27;18.87;;;1.30;99.90;;;0.27;100.00;96939.44;5059051;28;20453;-71
2024/03/01 02:32:38;;;;;;;32.90;18.57;;;1.30;99.90;;;0.30;100.00;96935.56;5075348;28;20454;-72
2024/03/01 02:35:08;;;;;;;33.47;19.07;;;1.30;99.90;;;0.27;100.00;96942.09;5074282;28;20461;-72
2024/03/01 02:37:35;;;;;;;31.30;17.83;;;1.30;99.90;;;0.30;100.00;96948.84;5061158;28;20446;-72
2024/03/01 02:40:04;;;;;;;31.23;19.03;;;1.20;99.90;;;0.31;100.00;96939.06;5055504;28;20453;-70
2024/03/01 02:42:34;;;;;;;33.37;20.20;;;1.30;99.90;;;0.22;100.00;96936.44;5063296;28;20457;-72
2024/03/01 02:45:04;;;;;;;31.70;17.60;;;1.20;99.90;;;-0.16;100.00;96864.66;5076950;28;20561;-71
2024/03/01 02:47:32;;;;;;;30.63;17.97;;;1.10;99.90;;;0.34;100.00;96933.41;5057501;28;20472;-72
2024/03/01 02:50:00;;;;;;;39.03;19.33;;;1.30;99.90;;;0.27;100.00;96933.28;5058683;28;20460;-71
2024/03/01 02:52:28;;;;;;;28.77;17.23;;;1.20;99.90;;;0.23;100.00;96924.84;5060109;28;20458;-72
2024/03/01 02:54:56;;;;;;;35.37;18.93;;;1.10;99.90;;;0.17;100.00;96919.41;5057307;28;20469;-73
2024/03/01 02:57:24;;;;;;;29.40;18.63;;;1.10;99.90;;;0.18;100.00;96937.81;5079025;28;20490;-72
2024/03/01 02:59:53;;;;;;;37.13;18.93;;;1.10;99.90;;;-0.01;100.00;96941.75;5053007;28;20515;-72
2024/03/01 03:02:21;;;;;;;29.37;17.30;;;0.90;99.90;;;-0.01;100.00;96933.78;5058163;28;20440;-72
2024/03/01 03:04:48;;;;;;;36.50;18.57;;;0.90;99.90;;;0.03;100.00;96928.94;5063819;28;20519;-70
2024/03/01 03:07:18;;;;;;;26.83;17.13;;;0.90;99.90;;;0.16;100.00;96923.06;5061986;28;20472;-71
2024/03/01 03:09:46;;;;;;;27.63;17.63;;;1.00;99.90;;;0.28;100.00;96927.78;5060619;28;20460;-72
2024/03/01 03:12:13;;;;;;;33.93;20.33;;;1.10;99.90;;;0.15;100.00;96927.53;5061259;28;20468;-71
2024/03/01 03:14:42;;;;;;;32.10;18.37;;;1.10;99.90;;;0.22;100.00;96938.31;5064170;28;20471;-72
2024/03/01 03:17:11;;;;;;;31.20;16.03;;;1.10;99.90;;;0.25;100.00;96925.50;5052754;28;20462;-71
2024/03/01 03:19:39;;;;;;;27.87;17.40;;;1.10;99.90;;;0.26;100.00;96929.81;5062260;28;20460;-72
2024/03/01 03:22:08;;;;;;;29.00;18.30;;;1.20;99.90;;;0.19;100.00;96939.47;5079292;28;20449;-72
2024/03/01 03:24:36;;;;;;;30.40;17.60;;;1.10;99.90;;;0.14;100.00;96944.50;5038874;28;21146;-71
2024/03/01 03:27:04;;;;;;;28.53;17.17;;;1.10;99.90;;;0.15;100.00;96943.50;5057846;28;21082;-71
2024/03/01 03:29:31;;;;;;;29.30;17.33;;;1.00;99.90;;;0.20;100.00;96943.78;5057744;28;20584;-71
2024/03/01 03:31:59;;;;;;;31.87;17.67;;;1.00;99.90;;;0.23;100.00;96939.94;5057642;28;20450;-71
2024/03/01 03:34:27;;;;;;;27.27;18.90;;;1.10;99.90;;;0.24;100.00;96939.78;5054972;28;20460;-71
2024/03/01 03:36:55;;;;;;;30.67;17.30;;;1.10;99.90;;;0.26;100.00;96937.78;5062760;28;20470;-71
2024/03/01 03:39:26;;;;;;;30.07;17.90;;;1.10;99.90;;;0.23;100.00;96930.16;5046069;28;20500;-71
2024/03/01 03:41:54;;;;;;;29.33;18.00;;;1.10;99.90;;;0.25;100.00;96932.63;5060181;28;20963;-71
2024/03/01 03:44:21;;;;;;;28.30;19.07;;;1.10;99.90;;;0.11;100.00;96935.03;5059828;28;21119;-72
2024/03/01 03:46:50;;;;;;;31.50;18.00;;;1.10;99.90;;;-0.09;100.00;96933.84;5055459;28;20456;-71
2024/03/01 03:49:19;;;;;;;32.93;18.03;;;0.90;99.90;;;-0.07;100.00;96942.44;5060401;28;20963;-71
2024/03/01 03:51:48;;;;;;;31.63;19.63;;;0.80;99.90;;;-0.15;100.00;96944.16;5059084;28;20968;-71
2024/03/01 03:54:18;;;;;;;34.53;20.03;;;0.80;99.90;;;-0.32;100.00;96916.84;5053513;28;20455;-71
2024/03/01 03:56:45;;;;;;;35.23;19.20;;;0.80;99.90;;;-0.10;100.00;96956.88;5064175;28;20487;-72
2024/03/01 03:59:13;;;;;;;30.47;18.70;;;0.80;99.90;;;-0.02;100.00;96959.53;5066830;28;20517;-71
2024/03/01 04:01:40;;;;;;;30.30;20.70;;;0.80;99.90;;;-0.03;100.00;96938.44;5047621;28;20456;-71
2024/03/01 04:04:07;;;;;;;31.50;19.97;;;1.00;99.90;;;0.21;100.00;96952.59;5064743;28;20476;-70
2024/03/01 04:06:37;;;;;;;31.13;19.70;;;1.10;99.90;;;-0.32;100.00;96874.38;5063668;28;20501;-70
2024/03/01 04:09:10;;;;;;;26.47;17.33;;;1.10;99.90;;;0.26;100.00;96959.03;5054418;28;20551;-71
2024/03/01 04:11:37;;;;;;;33.53;18.87;;;1.10;99.90;;;0.18;100.00;96961.72;5064563;28;20802;-72
2024/03/01 04:14:04;;;;;;;28.10;18.40;;;1.10;99.90;;;-0.04;100.00;96955.38;5081483;28;20487;-71
2024/03/01 04:16:33;;;;;;;35.30;19.57;;;1.00;99.90;;;0.02;100.00;96954.69;5062340;28;20464;-72
2024/03/01 04:19:08;;;;;;;29.43;19.47;;;1.00;99.90;;;-0.17;100.00;96924.09;5066955;28;20456;-71
2024/03/01 04:21:39;;;;;;;33.60;19.10;;;1.00;99.90;;;0.03;100.00;96951.03;5043849;28;20832;-72
2024/03/01 04:24:12;;;;;;;29.30;19.07;;;1.00;99.90;;;0.05;100.00;96953.50;5061392;28;20463;-70
2024/03/01 04:26:39;;;;;;;37.73;19.07;;;1.00;99.90;;;0.01;100.00;96962.81;5055164;28;20475;-70
2024/03/01 04:29:07;;;;;;;27.13;16.97;;;1.00;99.90;;;-0.10;100.00;96956.06;5048304;28;20451;-70
2024/03/01 04:31:35;;;;;;;30.40;17.70;;;1.00;99.90;;;-0.17;100.00;96961.25;5079120;28;20454;-72
2024/03/01 04:34:05;;;;;;;33.53;18.73;;;0.90;99.90;;;-0.10;100.00;96978.13;5062167;28;20459;-71
2024/03/01 04:36:36;;;;;;;34.87;19.83;;;0.90;99.90;;;-0.14;100.00;96976.84;5066195;28;20455;-71
2024/03/01 04:39:05;;;;;;;35.90;19.90;;;0.90;99.90;;;-0.18;100.00;96978.19;5065331;28;20456;-71
2024/03/01 04:41:34;;;;;;;37.87;20.07;;;0.80;99.90;;;-0.15;100.00;96991.97;5068453;28;20452;-71
2024/03/01 04:44:05;;;;;;;31.13;19.60;;;0.80;99.90;;;-0.11;100.00;96996.91;5062896;28;20463;-71
2024/03/01 04:46:34;;;;;;;32.17;19.93;;;0.80;99.90;;;-0.69;100.00;96905.03;5067243;28;20483;-71
2024/03/01 04:49:02;;;;;;;33.13;20.63;;;0.80;99.90;;;-0.05;100.00;96991.75;5067640;28;20456;-71
2024/03/01 04:51:29;;;;;;;31.17;19.30;;;0.90;99.90;;;-0.19;100.00;96989.81;5066411;28;20586;-72
2024/03/01 04:53:57;;;;;;;32.23;19.13;;;0.90;99.90;;;-0.28;100.00;96991.66;5060194;28;20457;-72
2024/03/01 04:56:26;;;;;;;32.13;18.67;;;0.90;99.90;;;-0.50;100.00;96953.44;5061475;28;20448;-72
2024/03/01 04:58:56;;;;;;;28.70;18.30;;;0.90;99.90;;;-0.16;100.00;97005.38;5065005;28;20471;-72
2024/03/01 05:01:25;;;;;;;26.63;16.97;;;0.90;99.90;;;-0.25;100.00;97006.41;5062767;28;20522;-72
2024/03/01 05:03:53;;;;;;;26.70;17.10;;;0.80;99.90;;;-0.26;100.00;96999.44;5059756;28;20465;-71
2024/03/01 05:06:20;;;;;;;30.10;17.43;;;0.80;99.90;;;-1.01;100.00;96893.53;5060271;28;20481;-73
2024/03/01 05:08:50;;;;;;;28.17;18.20;;;0.80;99.90;;;-0.38;100.00;97007.81;5057654;28;21254;-71
2024/03/01 05:11:23;;;;;;;30.40;17.33;;;0.80;99.90;;;-0.38;100.00;97007.81;5063984;28;20455;-71
2024/03/01 05:13:52;;;;;;;31.33;19.33;;;0.70;99.90;;;-0.31;100.00;97011.41;5063703;28;20463;-72
2024/03/01 05:16:24;;;;;;;30.10;17.23;;;0.70;99.90;;;-0.29;100.00;97014.72;5067118;28;20449;-70
2024/03/01 05:18:52;;;;;;;32.13;16.83;;;0.70;99.90;;;-0.29;100.00;97016.56;5065550;28;20468;-71
2024/03/01 05:21:22;;;;;;;31.30;17.73;;;0.70;99.90;;;-0.30;100.00;97015.72;5033064;28;20562;-72
2024/03/01 05:23:51;;;;;;;32.97;16.73;;;0.80;99.90;;;-0.26;100.00;97036.63;5061821;28;20896;-71
2024/03/01 05:26:18;;;;;;;32.03;17.00;;;0.80;99.90;;;-0.26;100.00;97024.19;5058293;28;21099;-72
2024/03/01 05:28:49;;;;;;;32.27;16.37;;;0.80;99.90;;;-0.34;100.00;97027.69;5055632;28;20542;-72
2024/03/01 05:31:16;;;;;;;28.80;17.40;;;0.80;99.90;;;-0.24;100.00;97024.00;5058948;28;20983;-72
2024/03/01 05:33:48;;;;;;;29.00;17.17;;;0.80;99.90;;;-0.34;100.00;97035.66;5062677;28;21174;-72
2024/03/01 05:36:15;;;;;;;27.50;17.03;;;0.80;99.90;;;-0.41;100.00;97039.16;5077008;28;21173;-71
2024/03/01 05:38:42;;;;;;;28.43;16.93;;;0.70;99.90;;;-0.37;100.00;97036.00;5064680;28;20455;-74
2024/03/01 05:41:14;;;;;;;28.83;18.03;;;0.70;99.90;;;-0.35;100.00;97033.16;5066888;28;20475;-70
2024/03/01 05:43:43;;;;;;;25.77;16.43;;;0.70;99.90;;;-0.16;100.00;97031.94;5062094;28;20504;-75
2024/03/01 05:46:14;;;;;;;33.50;18.90;;;0.80;99.90;;;-0.36;100.00;97005.81;5063412;28;20472;-74
2024/03/01 05:48:42;;;;;;;30.17;17.20;;;0.90;99.90;;;-0.21;100.00;97034.28;5064285;28;20458;-75
2024/03/01 05:51:14;;;;;;;29.80;18.20;;;0.80;99.90;;;-0.66;100.00;96947.19;5055969;28;20465;-72
2024/03/01 05:53:42;;;;;;;32.53;17.40;;;0.90;99.90;;;0.05;100.00;97049.13;5057625;28;20464;-73
2024/03/01 05:56:17;;;;;;;26.20;17.57;;;0.90;99.90;;;0.14;100.00;97048.09;5078816;28;20484;-74
2024/03/01 05:58:47;;;;;;;31.37;18.57;;;1.10;99.90;;;0.14;100.00;97042.78;5057333;28;20471;-77
2024/03/01 06:01:16;;;;;;;31.47;17.40;;;1.20;99.90;;;0.20;100.00;97050.06;5065845;28;20504;-77
2024/03/01 06:03:45;;;;;;;30.63;17.93;;;1.20;99.90;;;0.36;100.00;97048.31;5067561;28;20446;-74
2024/03/01 06:06:18;;;;;;;27.07;16.70;;;1.30;99.90;;;0.42;100.00;97044.97;5065692;28;20602;-74
2024/03/01 06:08:46;;;;;;;31.10;17.40;;;1.40;99.90;;;0.29;100.00;97008.31;5065619;28;20534;-74
2024/03/01 06:11:13;;;;;;;33.20;17.70;;;1.50;99.90;;;0.52;100.00;97058.84;5063763;28;20464;-73
2024/03/01 06:13:41;;;;;;;28.53;17.87;;;1.50;99.90;;;0.41;100.00;97014.91;5062034;28;20499;-78
2024/03/01 06:16:09;;;;;;;28.53;18.43;;;1.60;99.90;;;0.83;100.00;97063.34;5059033;28;20504;-73
2024/03/01 06:18:39;;;;;;;32.00;18.50;;;1.60;99.90;;;0.47;100.00;96981.47;5057604;28;20839;-72
2024/03/01 06:21:06;;;;;;;24.03;17.17;;;1.80;99.90;;;1.05;100.00;97060.84;5064160;28;20563;-71
2024/03/01 06:23:40;;;;;;;23.57;15.13;;;1.90;99.20;;;1.00;100.00;97065.88;5054981;28;20499;-71
2024/03/01 06:26:07;;;;;;;29.47;18.30;;;2.00;97.60;;;1.04;100.00;97067.16;5062951;28;20595;-72
2024/03/01 06:28:34;;;;;;;28.57;19.03;;;2.00;97.30;;;1.13;100.00;97074.06;5064157;28;20463;-78
2024/03/01 06:31:02;;;;;;;30.43;19.90;;;2.00;98.00;;;1.21;100.00;97053.72;5060494;28;20467;-73
2024/03/01 06:33:29;;;;;;;26.93;17.97;;;2.10;98.40;;;1.25;100.00;97055.03;5061073;28;20571;-72
2024/03/01 06:35:57;;;;;;;30.67;16.90;;;2.10;97.80;;;1.30;100.00;97051.81;5065012;28;20880;-72
2024/03/01 06:41:10;;;;;;;30.93;20.67;;;2.20;96.80;;;1.02;100.00;97039.09;5059143;28;20951;-72
2024/03/01 06:43:38;;;;;;;35.93;20.77;;;2.20;95.80;;;1.02;100.00;97049.72;5069149;28;20456;-73
2024/03/01 06:46:07;;;;;;;29.43;18.30;;;2.10;96.00;;;1.07;100.00;97050.84;5059102;28;20494;-74
2024/03/01 06:48:37;;;;;;;31.93;17.70;;;2.00;96.70;;;1.30;100.00;97052.66;5060024;28;20471;-73
2024/03/01 06:51:08;;;;;;;29.77;19.17;;;2.20;97.40;;;1.24;100.00;97053.38;5041215;28;20521;-74
2024/03/01 06:53:38;;;;;;;35.60;21.80;;;2.20;97.00;;;1.25;100.00;97065.66;5061426;28;21141;-73
2024/03/01 06:56:08;;;;;;;31.73;19.93;;;2.20;96.60;;;1.27;100.00;97061.81;5058593;28;21127;-73
2024/03/01 06:58:35;;;;;;;29.17;19.07;;;2.20;96.30;;;1.32;100.00;97060.47;5054805;28;20983;-73
2024/03/01 07:01:04;;;;;;;32.57;19.87;;;2.30;96.40;;;1.55;100.00;97055.09;5058555;28;20457;-74
2024/03/01 07:03:32;;;;;;;31.10;18.83;;;2.40;96.30;;;1.75;99.91;97062.56;5055040;28;20473;-71
2024/03/01 07:05:59;;;;;;;31.90;21.60;;;2.50;95.80;;;1.75;100.00;97054.56;5060227;28;20536;-71
2024/03/01 07:08:27;;;;;;;32.40;19.50;;;2.60;95.00;;;1.81;99.55;97059.16;5054526;28;20464;-74
2024/03/01 07:10:54;;;;;;;30.37;18.10;;;2.60;94.60;;;1.83;99.09;97049.13;5062143;28;20457;-73
2024/03/01 07:13:23;;;;;;;32.30;19.23;;;2.70;94.10;;;1.87;99.09;97053.09;5061105;28;20919;-71
2024/03/01 07:15:50;;;;;;;29.90;18.87;;;2.70;93.70;;;1.67;98.47;97061.63;5056209;28;20487;-85
2024/03/01 07:18:19;;;;;;;30.97;18.40;;;2.70;92.40;;;1.74;97.83;97047.56;5055356;28;21282;-71
2024/03/01 07:20:50;;;;;;;36.07;19.57;;;2.70;92.00;;;1.74;98.18;97043.06;5043414;28;20821;-71
2024/03/01 07:23:18;;;;;;;33.00;18.50;;;2.70;92.00;;;1.73;97.32;97045.91;5056998;28;20462;-72
2024/03/01 07:25:46;;;;;;;27.63;16.63;;;2.70;91.50;;;1.67;97.54;97021.69;5051783;28;20449;-72
2024/03/01 07:28:13;;;;;;;32.40;17.30;;;2.80;91.60;;;1.94;96.79;97038.03;5054834;28;20450;-76
2024/03/01 07:30:43;;;;;;;28.20;16.90;;;2.80;91.50;;;1.94;96.24;97042.53;5056411;28;20444;-71
2024/03/01 07:33:11;;;;;;;27.70;17.40;;;2.90;91.50;;;2.02;95.91;97047.75;5058848;28;20470;-72
2024/03/01 07:35:38;;;;;;;28.57;18.00;;;2.90;91.40;;;2.07;94.36;97047.22;5062661;28;20467;-74
2024/03/01 07:38:06;;;;;;;34.00;16.83;;;3.10;90.50;;;2.09;94.81;97040.66;5056779;28;20457;-71
2024/03/01 07:40:33;;;;;;;27.13;17.27;;;3.00;90.70;;;2.47;93.33;97042.34;5058556;28;20464;-70
2024/03/01 07:43:01;;;;;;;25.63;18.03;;;3.20;90.80;;;2.44;93.35;97036.59;5060443;28;20459;-75
2024/03/01 07:45:28;;;;;;;26.00;16.50;;;3.30;90.30;;;2.07;92.21;96975.28;5060731;28;20511;-74
2024/03/01 07:47:57;;;;;;;24.80;18.53;;;3.30;89.70;;;2.43;92.87;97041.09;5065460;28;20982;-73
2024/03/01 07:50:24;;;;;;;28.60;18.10;;;3.40;89.40;;;2.47;93.11;97052.22;5063300;28;20460;-74
2024/03/01 07:52:51;;;;;;;27.30;18.20;;;3.50;89.70;;;2.17;94.04;97037.06;5066366;28;20460;-72
2024/03/01 07:55:19;;;;;;;26.77;18.60;;;3.40;88.90;;;2.36;94.14;97050.84;5068324;28;20444;-73
2024/03/01 07:57:46;;;;;;;29.80;16.97;;;3.40;89.10;;;2.37;94.51;97052.50;5065351;28;20987;-74
2024/03/01 08:00:14;;;;;;;29.67;18.80;;;3.40;89.80;;;2.35;94.01;97049.19;5062288;28;20463;-76
2024/03/01 08:02:42;;;;;;;29.60;19.03;;;3.40;89.60;;;2.32;94.71;97049.56;5060371;28;20459;-71
2024/03/01 08:05:10;;;;;;;32.37;18.37;;;3.40;89.40;;;2.50;94.21;97058.00;5077567;28;20466;-72
2024/03/01 08:07:38;;;;;;;33.17;19.10;;;3.50;90.00;;;2.59;92.72;97047.22;5061812;28;20490;-71
2024/03/01 08:10:08;;;;;;;26.60;18.17;;;3.60;89.10;;;2.73;92.46;97051.69;5059567;28;20452;-72
2024/03/01 08:12:35;;;;;;;26.33;18.00;;;3.60;88.70;;;3.02;90.73;97059.75;5062355;28;20467;-74
2024/03/01 08:15:22;;;;;;;26.23;16.97;;;3.80;88.30;;;2.67;90.85;97041.78;5062580;28;20503;-73
2024/03/01 08:17:49;;;;;;;27.47;17.90;;;3.80;87.20;;;2.97;91.24;97061.16;5062843;28;20529;-72
2024/03/01 08:20:47;;;;;;;27.17;17.37;;;3.80;87.60;;;2.93;91.02;97061.72;5059780;28;20457;-72
2024/03/01 08:23:15;;;;;;;30.20;18.60;;;3.90;86.60;;;2.95;90.29;97060.53;5056557;28;20524;-71
2024/03/01 08:25:42;;;;;;;30.03;18.53;;;4.00;86.20;;;2.99;90.87;97063.63;5061573;28;20465;-71
2024/03/01 08:28:11;;;;;;;27.77;18.00;;;4.00;86.80;;;3.13;89.60;97074.44;5061688;28;20570;-72
2024/03/01 08:30:45;;;;;;;28.03;18.60;;;4.10;86.30;;;3.07;89.78;97063.50;5060784;28;20481;-72
2024/03/01 08:33:17;;;;;;;24.33;16.80;;;4.10;86.40;;;3.35;88.63;97075.25;5058818;28;20453;-72
2024/03/01 08:35:46;;;;;;;29.63;17.57;;;4.20;86.10;;;2.99;90.76;97071.66;5061941;28;20491;-71
2024/03/01 08:39:00;;;;;;;35.40;18.33;;;4.20;85.70;;;3.09;89.84;97058.78;5059165;28;20893;-71
2024/03/01 08:41:28;;;;;;;30.03;17.57;;;4.20;86.00;;;3.29;90.86;97060.00;5064302;28;20482;-70
2024/03/01 08:43:58;;;;;;;26.70;17.10;;;4.20;86.70;;;3.38;89.85;97058.84;5056747;28;20462;-71
2024/03/01 08:46:31;;;;;;;30.30;18.20;;;4.40;86.20;;;3.85;88.47;97059.16;5061426;28;20475;-72
2024/03/01 08:49:00;;;;;;;30.00;19.67;;;4.60;86.20;;;3.90;86.77;97048.72;5061638;28;20460;-71
2024/03/01 08:51:29;;;;;;;29.13;18.90;;;4.80;85.30;;;3.68;87.70;97054.13;5066681;28;20460;-72
2024/03/01 08:53:59;;;;;;;31.60;18.50;;;4.80;84.60;;;3.47;88.88;97063.00;5063848;28;20464;-71
2024/03/01 08:56:37;;;;;;;30.47;18.97;;;4.60;85.10;;;3.58;88.62;97053.66;5059467;28;20464;-71
2024/03/01 08:59:42;;;;;;;27.07;19.00;;;4.70;85.50;;;3.71;86.99;97065.44;5058254;28;20456;-74
2024/03/01 09:02:44;;;;;;;30.40;17.87;;;4.80;84.80;;;4.09;87.50;97065.06;5063093;28;20462;-72
2024/03/01 09:05:12;;;;;;;32.47;19.20;;;4.90;85.10;;;4.16;86.47;97067.78;5061069;28;20458;-74
2024/03/01 09:07:40;;;;;;;33.27;19.97;;;5.10;84.90;;;4.20;86.06;97066.38;5065307;28;21236;-73
2024/03/01 09:10:18;;;;;;;29.70;18.87;;;5.10;84.70;;;4.15;85.99;97066.94;5064966;28;20967;-73
2024/03/01 09:12:46;;;;;;;29.83;19.47;;;5.20;84.60;;;4.21;86.61;97063.50;5059506;28;20949;-72
2024/03/01 09:15:15;;;;;;;33.90;20.10;;;5.10;84.60;;;4.07;87.49;97069.81;5060519;28;20563;-73
2024/03/01 09:17:43;;;;;;;35.40;21.50;;;5.10;84.60;;;4.60;85.77;97050.50;5065117;28;20453;-73
2024/03/01 09:20:22;;;;;;;27.00;18.20;;;5.30;84.90;;;4.72;83.59;97052.59;5037763;28;20522;-74
2024/03/01 09:22:50;;;;;;;31.50;20.00;;;5.50;83.90;;;4.82;83.36;97056.53;5053291;28;20457;-73
2024/03/01 09:26:01;;;;;;;27.07;17.63;;;5.60;83.30;;;4.39;83.96;97060.28;5060061;28;20819;-72
2024/03/01 09:28:29;;;;;;;28.53;18.77;;;5.50;83.10;;;4.94;83.81;97067.44;5015501;28;20477;-73
2024/03/01 09:30:57;;;;;;;29.07;19.27;;;5.60;83.70;;;5.31;81.17;97071.66;5062615;28;20502;-72
2024/03/01 09:33:25;;;;;;;31.87;19.77;;;5.90;82.90;;;5.73;80.02;97074.13;5061391;28;20453;-73
2024/03/01 09:35:53;;;;;;;26.30;19.10;;;6.20;83.00;;;6.19;77.11;97067.03;5067110;28;20464;-73
2024/03/01 09:38:23;;;;;;;32.87;21.27;;;6.60;82.10;;;6.09;76.60;97075.53;5061010;28;20445;-72
2024/03/01 09:41:26;;;;;;;28.37;19.27;;;6.90;80.70;;;6.22;76.22;97066.63;5063947;28;20994;-73
2024/03/01 09:44:07;;;;;;;32.40;21.00;;;6.90;80.40;;;6.13;76.55;97063.34;5062254;28;20976;-74
2024/03/01 09:46:44;;;;;;;32.77;21.40;;;7.00;80.00;;;5.87;76.82;97069.56;5060298;28;20470;-74
2024/03/01 09:49:24;;;;;;;29.50;20.70;;;6.80;79.50;;;6.13;76.87;97063.34;5056641;28;21062;-72
2024/03/01 09:52:02;;;;;;;34.40;21.83;;;6.80;80.20;;;6.15;76.63;97072.03;5064762;28;20853;-73
2024/03/01 09:54:41;;;;;;;37.40;22.13;;;6.90;80.10;;;6.15;75.88;97069.34;5063391;28;20958;-74
2024/03/01 09:57:18;;;;;;;29.27;22.30;;;7.10;79.60;;;6.34;75.40;97064.13;5064998;28;20452;-74
2024/03/01 09:59:51;;;;;;;34.17;22.20;;;7.20;79.10;;;6.33;74.99;97059.78;5063118;28;20460;-73
2024/03/01 10:02:32;;;;;;;32.30;21.03;;;7.30;78.80;;;6.38;75.61;97073.38;5062728;28;20462;-71
2024/03/01 10:05:19;;;;;;;30.93;21.10;;;7.30;79.00;;;6.40;74.86;97059.78;5063242;28;20599;-82
2024/03/01 10:07:55;;;;;;;33.07;22.53;;;7.40;78.80;;;7.00;73.04;97072.09;5058797;28;20479;-72
2024/03/01 10:10:41;;;;;;;29.70;20.47;;;7.60;78.70;;;7.17;72.28;97064.31;5060937;28;20460;-73
2024/03/01 10:13:19;;;;;;;27.00;21.70;;;7.90;78.10;;;7.50;72.38;97057.88;5058205;28;20442;-72
2024/03/01 10:15:59;;;;;;;33.07;24.53;;;7.90;78.40;;;7.57;71.18;97064.03;5077370;28;20977;-73
2024/03/01 10:18:46;;;;;;;33.10;23.17;;;8.10;77.70;;;7.30;72.16;97066.09;5057558;28;20455;-72
2024/03/01 10:21:27;;;;;;;36.17;23.23;;;8.00;77.80;;;7.51;71.87;97062.22;5061686;28;20504;-72
2024/03/01 10:24:19;;;;;;;39.43;24.33;;;8.00;78.00;;;7.84;70.00;97060.28;5057253;28;20450;-74
2024/03/01 10:27:00;;;;;;;34.47;24.33;;;8.50;77.50;;;7.39;71.41;97056.72;5045484;28;20510;-73
2024/03/01 10:29:44;;;;;;;32.93;24.73;;;8.30;77.20;;;7.32;73.19;97064.81;5055929;28;20563;-73